Pagrindinis puslapis
METAR-TAF:

METAR-TAF

Oro uostai :

Rionė, Danija

platuma: 55-04N, ilguma: 014-45E, Aukštis: 16 m

Dabartinis oras

Ataskaita buvo paskelbta 17 minutes, ne 12:20 UTC
Vėjas 12 kt iš Pietų/Pietvakarių
Temperatūra 7°C
Drėgmė 81%
Slėgis 1006 hPa
Matomumas 10 km arba daugiau

METAR: EKRN 161220Z AUTO 20012KT 9999 // NCD 07/04 Q1006

Laikas: 13:37 (12:37 UTC)

Prognozė

Ataskaita buvo paskelbta 1 valandą ir 29 minutes, ne 11:08 UTC
Prognozė galioja nuo 16 metu 12 UTC su 16 metu 21 UTC
Vėjas 15 kt iš Pietų/Pietvakarių
Matomumas 10 km arba daugiau
Išsisklaidę debesys ne aukštis 1200 ft

TAF: EKRN 161108Z 1612/1621 21015KT 9999 SCT012

Orai ataskaitas ir orų prognozės (METAR, TAF).

turimą stotys yra geltonos ir raudonos taškus žemėlapyje.

Perkelti pele per norėdami pamatyti stoties vardą.

Tada spustelėkite, norėdami matyti oro stebėjimo ir prognozės.

Norėdami pakeisti žemėlapį: spustelėkite ant žalios mygtukų su juodo kryžiaus žemyn,; žalią mygtuką su brūkšneliu, jei norite nutolinti; arba žalių rodyklių gretimoms žemėlapius.


METAR-TAF: